Time;durP1;ratioP1;P1;durP2;ratioP2;P2;SDS_P1;SDS_P2;PMS_P1;PMS_P2;Temp;Humidity;BMP_temperature;BMP_pressure;BME280_temperature;BME280_humidity;BME280_pressure;Samples;Min_cycle;Max_cycle;Signal;HPM_P1;HPM_P2
2023/09/08 00:01:58;;;;;;;4.72;3.25;;;18.40;99.90;;;;;;4962736;28;20047;-66
2023/09/08 00:04:23;;;;;;;4.95;3.40;;;18.50;99.90;;;;;;4965112;28;20138;-66
2023/09/08 00:06:49;;;;;;;4.70;3.40;;;18.60;99.90;;;;;;4949947;28;20722;-65
2023/09/08 00:09:14;;;;;;;8.30;5.43;;;18.70;99.90;;;;;;4958133;28;20027;-66
2023/09/08 00:11:40;;;;;;;6.10;3.55;;;18.70;99.90;;;;;;4952129;28;20066;-67
2023/09/08 00:14:06;;;;;;;6.50;3.97;;;18.70;99.90;;;;;;5000071;23;20050;-66
2023/09/08 00:16:31;;;;;;;5.90;3.58;;;18.70;99.90;;;;;;5008000;28;20498;-66
2023/09/08 00:19:00;;;;;;;5.93;3.35;;;18.70;99.90;;;;;;5010740;28;20040;-63
2023/09/08 00:21:26;;;;;;;9.07;4.20;;;18.60;99.90;;;;;;5011061;28;20239;-61
2023/09/08 00:23:53;;;;;;;6.70;3.38;;;18.60;99.90;;;;;;5003702;28;20030;-64
2023/09/08 00:26:19;;;;;;;8.25;3.97;;;18.70;99.90;;;;;;4997487;28;20022;-65
2023/09/08 00:28:44;;;;;;;8.73;3.35;;;18.70;99.90;;;;;;5002864;28;20038;-61
2023/09/08 00:31:10;;;;;;;6.68;3.20;;;18.60;99.90;;;;;;5003119;28;20022;-62
2023/09/08 00:33:37;;;;;;;5.47;4.20;;;18.60;99.90;;;;;;5000714;28;20022;-59
2023/09/08 00:36:02;;;;;;;8.07;4.10;;;18.60;99.90;;;;;;5003792;28;20707;-63
2023/09/08 00:38:28;;;;;;;6.63;4.38;;;18.40;99.90;;;;;;5007196;28;20037;-63
2023/09/08 00:40:54;;;;;;;6.85;4.22;;;18.30;99.90;;;;;;5007920;28;20034;-61
2023/09/08 00:43:19;;;;;;;5.20;3.60;;;18.20;99.90;;;;;;4996818;28;20057;-63
2023/09/08 00:45:46;;;;;;;7.05;3.85;;;18.10;99.90;;;;;;5002559;28;20034;-61
2023/09/08 00:48:12;;;;;;;9.07;3.50;;;18.00;99.90;;;;;;5004678;28;20833;-64
2023/09/08 00:50:38;;;;;;;6.43;4.30;;;17.90;99.90;;;;;;5011289;28;20026;-64
2023/09/08 00:53:05;;;;;;;7.68;4.00;;;17.90;99.90;;;;;;5008276;28;20022;-65
2023/09/08 00:55:31;;;;;;;6.22;4.45;;;17.90;99.90;;;;;;5008488;28;20029;-62
2023/09/08 00:57:58;;;;;;;6.28;4.30;;;17.90;99.90;;;;;;5008386;28;20030;-64
2023/09/08 01:00:24;;;;;;;7.00;4.35;;;17.90;99.90;;;;;;5007845;28;20026;-64
2023/09/08 01:02:50;;;;;;;9.00;4.55;;;17.80;99.90;;;;;;5006063;28;20022;-63
2023/09/08 01:05:16;;;;;;;6.70;4.05;;;17.70;99.90;;;;;;5003155;28;20021;-63
2023/09/08 01:07:43;;;;;;;5.82;3.90;;;17.80;99.90;;;;;;5006562;28;20026;-63
2023/09/08 01:10:09;;;;;;;5.68;4.00;;;17.70;99.90;;;;;;4996598;28;20082;-64
2023/09/08 01:12:35;;;;;;;6.97;4.28;;;17.70;99.90;;;;;;5006643;28;20058;-64
2023/09/08 01:15:02;;;;;;;8.50;3.92;;;17.60;99.90;;;;;;5006153;28;20553;-69
2023/09/08 01:17:27;;;;;;;6.45;4.28;;;17.60;99.90;;;;;;4999163;28;20022;-62
2023/09/08 01:19:56;;;;;;;5.57;4.05;;;17.50;99.90;;;;;;4998394;28;20109;-64
2023/09/08 01:22:45;;;;;;;7.38;3.80;;;17.60;99.90;;;;;;5008032;28;20407;-62
2023/09/08 01:25:23;;;;;;;5.15;3.38;;;17.60;99.90;;;;;;5002968;28;20029;-64
2023/09/08 01:27:52;;;;;;;8.02;3.88;;;17.50;99.90;;;;;;5000119;28;20034;-62
2023/09/08 01:30:18;;;;;;;8.57;4.03;;;17.50;99.90;;;;;;5001841;28;20023;-65
2023/09/08 01:32:45;;;;;;;7.47;3.75;;;17.60;99.90;;;;;;5002577;28;20342;-64
2023/09/08 01:35:11;;;;;;;5.70;3.97;;;17.60;99.90;;;;;;5005436;28;20028;-61
2023/09/08 01:37:41;;;;;;;12.25;4.97;;;17.70;99.90;;;;;;5000587;28;20032;-64
2023/09/08 01:40:08;;;;;;;6.25;4.15;;;17.80;99.90;;;;;;5002698;28;20023;-64
2023/09/08 01:42:34;;;;;;;5.65;3.15;;;18.00;99.90;;;;;;5009209;28;20057;-64
2023/09/08 01:45:00;;;;;;;9.55;4.05;;;18.00;99.90;;;;;;5006514;28;20446;-61
2023/09/08 01:47:27;;;;;;;5.97;3.80;;;17.90;99.90;;;;;;5008804;28;20060;-64
2023/09/08 01:49:53;;;;;;;7.13;3.50;;;17.90;99.90;;;;;;5003544;28;20061;-64
2023/09/08 01:52:18;;;;;;;5.60;3.65;;;17.90;99.90;;;;;;5010619;28;20014;-61
2023/09/08 01:54:44;;;;;;;6.40;3.65;;;17.80;99.90;;;;;;5008349;28;20395;-61
2023/09/08 01:57:09;;;;;;;6.68;3.83;;;17.80;99.90;;;;;;5006869;28;20095;-64
2023/09/08 01:59:36;;;;;;;7.90;4.22;;;17.70;99.90;;;;;;5007272;28;20036;-64
2023/09/08 02:02:03;;;;;;;7.07;3.78;;;17.70;99.90;;;;;;5006034;28;20029;-61
2023/09/08 02:04:29;;;;;;;9.00;3.90;;;17.60;99.90;;;;;;5024049;28;20407;-62
2023/09/08 02:06:54;;;;;;;6.30;3.83;;;17.60;99.90;;;;;;5009525;28;20042;-66
2023/09/08 02:09:20;;;;;;;15.05;4.72;;;17.60;99.90;;;;;;5000536;28;20099;-62
2023/09/08 02:11:46;;;;;;;6.88;4.07;;;17.60;99.90;;;;;;5006957;28;20034;-64
2023/09/08 02:14:11;;;;;;;6.07;3.70;;;17.50;99.90;;;;;;5004774;28;20027;-63
2023/09/08 02:16:37;;;;;;;7.00;4.00;;;17.40;99.90;;;;;;5010494;28;20029;-66
2023/09/08 02:19:02;;;;;;;6.18;3.85;;;17.30;99.90;;;;;;5008426;28;20577;-66
2023/09/08 02:21:28;;;;;;;5.82;3.53;;;17.30;99.90;;;;;;5007869;28;20026;-65
2023/09/08 02:23:54;;;;;;;6.82;3.97;;;17.30;99.90;;;;;;5004214;28;20130;-64
2023/09/08 02:26:19;;;;;;;6.22;3.85;;;17.20;99.90;;;;;;5007411;28;20041;-64
2023/09/08 02:28:45;;;;;;;6.15;3.90;;;17.10;99.90;;;;;;5006105;28;20026;-63
2023/09/08 02:31:11;;;;;;;5.40;3.33;;;17.20;99.90;;;;;;5006545;28;20511;-65
2023/09/08 02:33:37;;;;;;;6.28;4.30;;;17.20;99.90;;;;;;5006229;28;20025;-63
2023/09/08 02:36:05;;;;;;;5.55;3.95;;;17.20;99.90;;;;;;5004664;28;20060;-62
2023/09/08 02:38:32;;;;;;;5.50;3.08;;;17.10;99.90;;;;;;5006195;28;20414;-65
2023/09/08 02:40:57;;;;;;;8.63;4.10;;;17.10;99.90;;;;;;5004948;28;20395;-64
2023/09/08 02:43:23;;;;;;;8.07;4.20;;;17.00;99.90;;;;;;5015675;28;20117;-66
2023/09/08 02:45:49;;;;;;;7.70;4.53;;;17.10;99.90;;;;;;4996004;28;20025;-64
2023/09/08 02:48:16;;;;;;;5.88;3.85;;;17.00;99.90;;;;;;5008544;28;20407;-64
2023/09/08 02:50:42;;;;;;;6.15;3.83;;;17.00;99.90;;;;;;5013812;28;20022;-65
2023/09/08 02:53:07;;;;;;;8.52;4.32;;;17.10;99.90;;;;;;5013402;28;20017;-64
2023/09/08 02:55:33;;;;;;;5.28;3.75;;;17.20;99.90;;;;;;5005596;28;20021;-65
2023/09/08 02:57:58;;;;;;;5.80;3.60;;;17.10;99.90;;;;;;5007406;28;20026;-64
2023/09/08 03:00:24;;;;;;;4.85;3.35;;;17.20;99.90;;;;;;5011054;28;20388;-63
2023/09/08 03:02:50;;;;;;;6.22;4.05;;;17.20;99.90;;;;;;5010216;28;20018;-62
2023/09/08 03:05:16;;;;;;;7.50;3.70;;;17.20;99.90;;;;;;5006742;28;20041;-65
2023/09/08 03:07:41;;;;;;;6.07;3.92;;;17.10;99.90;;;;;;5006609;28;20060;-64
2023/09/08 03:10:07;;;;;;;5.45;3.70;;;17.10;99.90;;;;;;5009033;28;20529;-59
2023/09/08 03:12:33;;;;;;;5.47;3.50;;;17.10;99.90;;;;;;5008161;28;20027;-65
2023/09/08 03:14:59;;;;;;;9.52;3.85;;;17.00;99.90;;;;;;5001554;28;20029;-64
2023/09/08 03:17:25;;;;;;;6.80;3.88;;;16.90;99.90;;;;;;5011188;28;20017;-66
2023/09/08 03:19:50;;;;;;;8.25;4.28;;;16.90;99.90;;;;;;4988340;28;20554;-63
2023/09/08 03:22:16;;;;;;;7.03;4.28;;;17.00;99.90;;;;;;5004291;28;20058;-63
2023/09/08 03:24:42;;;;;;;7.35;4.32;;;17.00;99.90;;;;;;5002717;28;20104;-62
2023/09/08 03:27:07;;;;;;;4.95;3.70;;;16.90;99.90;;;;;;5002112;28;20038;-64
2023/09/08 03:29:33;;;;;;;6.47;3.65;;;16.90;99.90;;;;;;4995725;28;20030;-64
2023/09/08 03:31:59;;;;;;;7.53;3.55;;;16.90;99.90;;;;;;5008099;28;20033;-65
2023/09/08 03:34:24;;;;;;;5.78;3.28;;;16.80;99.90;;;;;;5008425;28;20372;-66
2023/09/08 03:36:52;;;;;;;6.95;3.88;;;16.80;99.90;;;;;;5008761;28;20037;-65
2023/09/08 03:39:19;;;;;;;5.68;3.47;;;16.90;99.90;;;;;;5007509;28;20494;-59
2023/09/08 03:41:45;;;;;;;6.45;3.92;;;16.90;99.90;;;;;;5017958;28;20404;-65
2023/09/08 03:44:11;;;;;;;6.85;3.60;;;16.80;99.90;;;;;;5008583;28;20124;-61
2023/09/08 03:46:37;;;;;;;6.22;3.97;;;16.80;99.90;;;;;;5018797;28;20654;-64
2023/09/08 03:49:02;;;;;;;5.68;3.85;;;16.80;99.90;;;;;;5003952;28;20492;-62
2023/09/08 03:51:28;;;;;;;11.80;4.38;;;16.70;99.90;;;;;;5012632;28;20722;-65
2023/09/08 03:53:54;;;;;;;5.80;4.07;;;16.60;99.90;;;;;;5008428;28;20036;-63
2023/09/08 03:56:20;;;;;;;5.50;4.05;;;16.50;99.90;;;;;;5006720;28;20026;-64
2023/09/08 03:58:46;;;;;;;7.20;3.97;;;16.50;99.90;;;;;;5002646;28;20105;-66
2023/09/08 04:01:12;;;;;;;5.32;3.85;;;16.40;99.90;;;;;;5009396;28;20030;-68
2023/09/08 04:03:37;;;;;;;7.00;3.92;;;16.40;99.90;;;;;;5008282;28;20030;-66
2023/09/08 04:06:03;;;;;;;7.47;4.20;;;16.50;99.90;;;;;;5006700;28;20030;-66
2023/09/08 04:08:29;;;;;;;4.40;3.15;;;16.40;99.90;;;;;;5007071;28;20597;-65
2023/09/08 04:10:54;;;;;;;7.80;3.63;;;16.40;99.90;;;;;;5008829;28;20034;-65
2023/09/08 04:13:20;;;;;;;8.52;4.57;;;16.40;99.90;;;;;;5004688;28;20026;-58
2023/09/08 04:15:45;;;;;;;6.90;3.35;;;16.50;99.90;;;;;;5011094;28;20033;-57
2023/09/08 04:18:11;;;;;;;7.03;4.22;;;16.60;99.90;;;;;;5000854;28;20113;-66
2023/09/08 04:20:36;;;;;;;5.78;3.78;;;16.60;99.90;;;;;;5004840;28;20026;-65
2023/09/08 04:23:02;;;;;;;4.93;3.58;;;16.80;99.90;;;;;;5011030;28;20483;-64
2023/09/08 04:25:28;;;;;;;5.82;3.40;;;16.80;99.90;;;;;;5005126;28;20364;-66
2023/09/08 04:27:53;;;;;;;6.55;3.55;;;16.70;99.90;;;;;;5018682;28;20201;-65
2023/09/08 04:30:19;;;;;;;6.63;3.88;;;16.60;99.90;;;;;;5000439;28;20062;-64
2023/09/08 04:32:44;;;;;;;8.18;4.15;;;16.70;99.90;;;;;;4998429;28;20083;-60
2023/09/08 04:38:32;;;;;;;8.50;3.85;;;16.60;99.90;;;;;;5004332;28;20040;-62
2023/09/08 04:40:58;;;;;;;7.78;4.05;;;16.50;99.90;;;;;;5022376;28;20030;-65
2023/09/08 04:43:23;;;;;;;5.55;4.10;;;16.40;99.90;;;;;;5009451;28;20084;-60
2023/09/08 04:45:50;;;;;;;5.43;3.65;;;16.50;99.90;;;;;;5009684;28;20534;-62
2023/09/08 04:48:16;;;;;;;5.45;3.45;;;16.50;99.90;;;;;;5002183;28;20569;-63
2023/09/08 04:50:41;;;;;;;6.60;4.30;;;16.50;99.90;;;;;;5004563;28;20041;-60
2023/09/08 04:53:07;;;;;;;5.43;3.65;;;16.50;99.90;;;;;;5004432;28;20757;-60
2023/09/08 04:55:32;;;;;;;7.88;3.40;;;16.50;99.90;;;;;;5001322;28;20029;-62
2023/09/08 04:57:58;;;;;;;8.02;4.00;;;16.50;99.90;;;;;;5002963;28;20022;-59
2023/09/08 05:00:23;;;;;;;4.70;3.75;;;16.60;99.90;;;;;;5008167;28;20092;-61
2023/09/08 05:02:49;;;;;;;8.13;4.25;;;16.60;99.90;;;;;;5003160;28;20046;-57
2023/09/08 05:05:14;;;;;;;5.45;3.42;;;16.60;99.90;;;;;;5007473;28;20030;-61
2023/09/08 05:07:40;;;;;;;13.30;3.90;;;16.60;99.90;;;;;;5008710;28;20018;-59
2023/09/08 05:10:06;;;;;;;6.05;3.85;;;16.60;99.90;;;;;;5001021;28;20128;-61
2023/09/08 05:12:32;;;;;;;8.25;4.07;;;16.50;99.90;;;;;;5026148;28;20056;-57
2023/09/08 05:15:05;;;;;;;5.70;3.40;;;16.60;99.90;;;;;;4968392;28;1119696;-65
2023/09/08 05:17:31;;;;;;;6.38;3.97;;;16.50;99.90;;;;;;5007973;28;20017;-61
2023/09/08 05:19:56;;;;;;;6.82;4.07;;;16.50;99.90;;;;;;5002621;28;20403;-63
2023/09/08 05:22:22;;;;;;;5.32;3.28;;;16.60;99.90;;;;;;5006590;28;20112;-58
2023/09/08 05:24:48;;;;;;;10.20;4.03;;;16.50;99.90;;;;;;5004320;28;20030;-63
2023/09/08 05:27:13;;;;;;;7.78;4.03;;;16.60;99.90;;;;;;5008083;28;20103;-61
2023/09/08 05:29:39;;;;;;;5.47;3.90;;;16.60;99.90;;;;;;5004301;28;20030;-64
2023/09/08 05:32:04;;;;;;;6.60;4.25;;;16.60;99.90;;;;;;5005614;28;20034;-64
2023/09/08 05:34:30;;;;;;;7.00;3.40;;;16.70;99.90;;;;;;5020410;28;20518;-64
2023/09/08 05:36:56;;;;;;;6.35;3.85;;;16.80;99.90;;;;;;5009436;28;20034;-65
2023/09/08 05:39:21;;;;;;;6.10;3.30;;;16.80;99.90;;;;;;4999371;28;20487;-60
2023/09/08 05:41:47;;;;;;;5.18;3.50;;;16.90;99.90;;;;;;5003769;28;20100;-64
2023/09/08 05:44:12;;;;;;;4.40;3.70;;;17.00;99.90;;;;;;5001653;28;20112;-63
2023/09/08 05:46:38;;;;;;;4.75;3.20;;;17.20;99.90;;;;;;5001342;28;20033;-62
2023/09/08 05:49:04;;;;;;;5.63;3.50;;;17.30;99.90;;;;;;5001612;28;20022;-63
2023/09/08 05:51:30;;;;;;;8.10;3.72;;;17.50;99.90;;;;;;5005435;28;20022;-63
2023/09/08 05:53:55;;;;;;;13.90;3.95;;;17.60;99.90;;;;;;5007788;28;20109;-60
2023/09/08 05:56:26;;;;;;;5.10;3.40;;;17.70;99.90;;;;;;5006453;28;20100;-64
2023/09/08 05:58:52;;;;;;;7.70;3.50;;;17.70;99.90;;;;;;5001421;28;20042;-61
2023/09/08 06:01:17;;;;;;;5.53;4.07;;;17.90;99.90;;;;;;5005390;28;20022;-63
2023/09/08 06:03:43;;;;;;;6.40;3.65;;;18.10;99.90;;;;;;5010529;28;20025;-66
2023/09/08 06:06:09;;;;;;;5.30;3.88;;;18.60;99.90;;;;;;5011225;28;20027;-64
2023/09/08 06:08:34;;;;;;;5.30;3.47;;;19.10;99.90;;;;;;5002006;28;20037;-60
2023/09/08 06:11:00;;;;;;;5.32;3.50;;;19.70;99.90;;;;;;5000411;28;20026;-61
2023/09/08 06:13:26;;;;;;;4.47;2.80;;;20.10;99.90;;;;;;5004147;28;20034;-65
2023/09/08 06:15:52;;;;;;;5.43;2.95;;;20.40;99.90;;;;;;5011113;28;20030;-62
2023/09/08 06:18:17;;;;;;;5.82;2.72;;;20.60;99.90;;;;;;5000752;28;20401;-58
2023/09/08 06:20:47;;;;;;;5.35;3.08;;;20.50;99.90;;;;;;5000678;28;20044;-57
2023/09/08 06:23:13;;;;;;;4.85;2.83;;;20.50;99.90;;;;;;5008704;28;20037;-61
2023/09/08 06:25:39;;;;;;;7.90;3.65;;;20.40;99.90;;;;;;5027761;28;20402;-58
2023/09/08 06:28:05;;;;;;;12.00;3.47;;;20.30;99.90;;;;;;5013870;28;20030;-61
2023/09/08 06:30:30;;;;;;;6.72;3.05;;;20.20;99.90;;;;;;5009592;28;20084;-64
2023/09/08 06:32:56;;;;;;;4.57;3.33;;;20.30;99.90;;;;;;5012807;28;20034;-61
2023/09/08 06:35:21;;;;;;;9.88;3.30;;;20.30;99.90;;;;;;5024010;28;20026;-60
2023/09/08 06:37:47;;;;;;;4.97;2.97;;;20.20;99.90;;;;;;5006306;28;20021;-61
2023/09/08 06:40:13;;;;;;;4.68;3.17;;;20.20;99.90;;;;;;5015439;28;20040;-64
2023/09/08 06:42:38;;;;;;;5.05;3.60;;;20.20;99.90;;;;;;5006788;28;20560;-63
2023/09/08 06:45:04;;;;;;;6.18;3.20;;;20.30;99.90;;;;;;5005352;28;20045;-62
2023/09/08 06:47:30;;;;;;;6.20;3.20;;;20.40;99.90;;;;;;5008952;28;20194;-65
2023/09/08 06:49:55;;;;;;;6.10;3.40;;;20.50;99.90;;;;;;5006121;28;20069;-62
2023/09/08 06:52:21;;;;;;;3.80;2.72;;;20.60;99.90;;;;;;5007351;28;20014;-64
2023/09/08 06:54:47;;;;;;;5.88;2.80;;;20.90;99.90;;;;;;5008526;28;20029;-61
2023/09/08 06:57:13;;;;;;;3.45;2.17;;;21.70;99.90;;;;;;5023782;28;20029;-62
2023/09/08 06:59:38;;;;;;;4.60;2.60;;;22.90;99.90;;;;;;5013696;28;20472;-62
2023/09/08 07:02:04;;;;;;;5.07;2.70;;;24.60;98.80;;;;;;5023072;28;20041;-64
2023/09/08 07:04:30;;;;;;;8.05;2.28;;;25.80;97.10;;;;;;5023608;28;20038;-64
2023/09/08 07:06:56;;;;;;;5.30;2.63;;;26.90;94.60;;;;;;5006379;28;20030;-64
2023/09/08 07:09:21;;;;;;;7.90;2.40;;;28.40;92.10;;;;;;5006735;28;20032;-64
2023/09/08 07:11:47;;;;;;;4.78;3.00;;;28.80;91.30;;;;;;5009619;28;20026;-65
2023/09/08 07:14:12;;;;;;;6.53;2.50;;;29.90;89.50;;;;;;5006571;28;20065;-65
2023/09/08 07:16:38;;;;;;;5.65;2.47;;;29.90;88.50;;;;;;5030656;22;20046;-66
2023/09/08 07:19:04;;;;;;;4.45;2.53;;;30.30;87.80;;;;;;4998595;28;20033;-66
2023/09/08 07:21:30;;;;;;;4.90;2.70;;;30.40;86.30;;;;;;5003901;28;20042;-66
2023/09/08 07:23:56;;;;;;;3.47;2.42;;;30.70;88.50;;;;;;5006342;28;20032;-66
2023/09/08 07:26:21;;;;;;;3.03;2.40;;;31.50;84.60;;;;;;5011673;28;20037;-66
2023/09/08 07:28:48;;;;;;;4.93;2.20;;;31.40;84.00;;;;;;5005047;28;20113;-66
2023/09/08 07:31:14;;;;;;;3.35;2.38;;;31.70;83.30;;;;;;5001175;28;20398;-66
2023/09/08 07:33:40;;;;;;;3.53;2.63;;;31.80;82.60;;;;;;5002729;28;20018;-66
2023/09/08 07:36:06;;;;;;;3.72;2.58;;;31.30;81.70;;;;;;5002512;28;20033;-66
2023/09/08 07:38:32;;;;;;;3.08;2.47;;;31.60;80.70;;;;;;5004491;28;20035;-66
2023/09/08 07:40:59;;;;;;;5.70;2.13;;;32.10;79.90;;;;;;5000875;28;20034;-66
2023/09/08 07:43:25;;;;;;;4.43;2.65;;;32.00;81.10;;;;;;5008998;28;20561;-66
2023/09/08 07:45:51;;;;;;;6.90;2.78;;;32.40;80.80;;;;;;5007636;28;20034;-66
2023/09/08 07:48:16;;;;;;;4.50;2.83;;;33.00;79.30;;;;;;5004640;28;20037;-64
2023/09/08 07:50:42;;;;;;;7.75;2.70;;;32.90;76.80;;;;;;5000327;28;20073;-65
2023/09/08 07:53:08;;;;;;;3.80;2.50;;;32.60;79.80;;;;;;5000303;28;20018;-64
2023/09/08 07:55:33;;;;;;;5.40;2.42;;;32.10;78.90;;;;;;5001323;28;22008;-65
2023/09/08 07:58:00;;;;;;;5.55;2.95;;;32.20;78.20;;;;;;5004345;28;20037;-65
2023/09/08 08:00:27;;;;;;;4.75;2.83;;;32.50;79.20;;;;;;5009643;28;20026;-64
2023/09/08 08:02:54;;;;;;;4.47;2.20;;;33.10;78.40;;;;;;5012138;28;20365;-65
2023/09/08 08:05:20;;;;;;;3.70;2.75;;;32.20;77.30;;;;;;5003493;28;20109;-65
2023/09/08 08:07:46;;;;;;;4.22;2.90;;;31.90;77.40;;;;;;5008127;28;20057;-65
2023/09/08 08:10:12;;;;;;;4.90;2.53;;;31.70;79.00;;;;;;4999276;28;20053;-65
2023/09/08 08:12:39;;;;;;;3.30;2.58;;;32.00;79.80;;;;;;5008813;28;20075;-65
2023/09/08 08:15:05;;;;;;;4.53;2.33;;;33.10;77.80;;;;;;5009330;28;20714;-64
2023/09/08 08:17:31;;;;;;;2.80;2.28;;;33.40;77.70;;;;;;5007814;28;20042;-64
2023/09/08 08:20:06;;;;;;;4.03;2.97;;;33.20;77.00;;;;;;4988391;28;20051;-64
2023/09/08 08:22:32;;;;;;;3.30;2.50;;;33.20;76.80;;;;;;5009979;28;20029;-64
2023/09/08 08:24:58;;;;;;;3.55;2.60;;;33.00;78.20;;;;;;5005785;28;20037;-65
2023/09/08 08:27:24;;;;;;;5.00;2.60;;;33.30;78.80;;;;;;5012524;28;20026;-64
2023/09/08 08:29:50;;;;;;;3.85;2.28;;;32.90;78.90;;;;;;5003981;28;20507;-63
2023/09/08 08:32:16;;;;;;;4.57;2.70;;;33.80;76.20;;;;;;4998377;28;20014;-65
2023/09/08 08:34:42;;;;;;;5.85;2.70;;;33.90;75.60;;;;;;5017691;28;20037;-65
2023/09/08 08:37:08;;;;;;;5.20;2.88;;;33.60;77.30;;;;;;5004563;28;20033;-65
2023/09/08 08:39:33;;;;;;;3.85;2.63;;;33.10;77.10;;;;;;4997222;28;20087;-64
2023/09/08 08:42:06;;;;;;;4.00;2.72;;;32.60;77.00;;;;;;4999780;28;20069;-65
2023/09/08 08:44:32;;;;;;;4.88;2.45;;;33.00;79.70;;;;;;5005710;28;20106;-64
2023/09/08 08:46:59;;;;;;;3.67;2.42;;;33.00;78.40;;;;;;5003810;28;20166;-64
2023/09/08 08:49:26;;;;;;;3.03;2.38;;;33.40;77.10;;;;;;5007565;28;20441;-64
2023/09/08 08:51:52;;;;;;;4.45;2.67;;;33.70;77.20;;;;;;5004175;28;20531;-65
2023/09/08 08:54:18;;;;;;;2.88;2.50;;;33.90;77.00;;;;;;5003774;28;20022;-64
2023/09/08 08:56:43;;;;;;;3.42;2.50;;;33.70;76.50;;;;;;5006923;28;20018;-65
2023/09/08 08:59:10;;;;;;;5.75;2.70;;;33.80;76.90;;;;;;5000212;28;20568;-65
2023/09/08 09:01:36;;;;;;;6.45;2.67;;;34.00;75.30;;;;;;4999644;28;21942;-64
2023/09/08 09:04:05;;;;;;;5.65;2.67;;;33.70;77.60;;;;;;4999225;28;20244;-65
2023/09/08 09:06:31;;;;;;;4.93;2.88;;;33.80;76.20;;;;;;4994040;28;20038;-66
2023/09/08 09:08:58;;;;;;;6.03;3.03;;;33.70;77.20;;;;;;5008508;28;20045;-65
2023/09/08 09:11:23;;;;;;;5.43;2.47;;;34.70;75.40;;;;;;4994347;28;20033;-63
2023/09/08 09:13:49;;;;;;;3.88;2.53;;;34.70;75.30;;;;;;4996737;28;20030;-65
2023/09/08 09:16:15;;;;;;;4.80;2.55;;;34.10;76.00;;;;;;4993198;28;20514;-65
2023/09/08 09:18:59;;;;;;;4.45;2.50;;;34.10;77.50;;;;;;4996581;28;20406;-66
2023/09/08 09:21:46;;;;;;;3.15;2.75;;;33.70;75.70;;;;;;4992802;28;20042;-63
2023/09/08 09:24:36;;;;;;;4.22;2.78;;;33.60;76.40;;;;;;4993494;28;20034;-66
2023/09/08 09:27:05;;;;;;;12.65;2.85;;;33.50;75.50;;;;;;4985958;28;20034;-65
2023/09/08 09:29:31;;;;;;;3.42;2.60;;;33.70;74.80;;;;;;4988341;28;21060;-65
2023/09/08 09:32:08;;;;;;;3.60;2.67;;;33.80;74.70;;;;;;4990799;28;20092;-65
2023/09/08 09:34:34;;;;;;;5.50;3.00;;;33.60;76.40;;;;;;5003960;28;20018;-65
2023/09/08 09:37:00;;;;;;;8.55;2.72;;;33.40;74.20;;;;;;4997282;28;20038;-65
2023/09/08 09:39:27;;;;;;;4.20;2.70;;;33.50;75.50;;;;;;4996361;28;20041;-65
2023/09/08 09:41:57;;;;;;;6.32;2.95;;;33.50;78.10;;;;;;4995675;28;20034;-66
2023/09/08 09:44:23;;;;;;;6.13;2.80;;;33.60;77.00;;;;;;4993079;28;20704;-65
2023/09/08 09:46:52;;;;;;;5.30;2.95;;;34.10;76.30;;;;;;4991776;28;20113;-65
2023/09/08 09:49:18;;;;;;;4.45;2.80;;;34.00;76.10;;;;;;4991469;28;20041;-65
2023/09/08 09:51:47;;;;;;;4.75;2.72;;;33.80;75.80;;;;;;4994999;28;20033;-65
2023/09/08 09:54:13;;;;;;;5.97;3.20;;;33.30;78.40;;;;;;4993082;28;20479;-65
2023/09/08 09:56:39;;;;;;;8.15;4.35;;;33.10;77.30;;;;;;4992872;28;20018;-65
2023/09/08 09:59:08;;;;;;;5.43;3.28;;;32.60;77.70;;;;;;4994069;28;20117;-64
2023/09/08 10:01:34;;;;;;;4.95;2.97;;;32.20;76.90;;;;;;4993522;28;20046;-64
2023/09/08 10:04:02;;;;;;;4.35;2.65;;;31.90;79.60;;;;;;4995693;28;20041;-65
2023/09/08 10:06:30;;;;;;;7.65;2.75;;;31.50;79.40;;;;;;4996404;28;20046;-65
2023/09/08 10:08:58;;;;;;;4.50;2.85;;;31.40;79.80;;;;;;4993865;28;20034;-64
2023/09/08 10:11:28;;;;;;;7.45;2.83;;;31.10;80.20;;;;;;4995321;28;20628;-64
2023/09/08 10:13:58;;;;;;;4.25;3.30;;;31.00;81.50;;;;;;4993654;28;20018;-65
2023/09/08 10:16:27;;;;;;;4.60;2.58;;;31.10;82.20;;;;;;4992942;28;20140;-65
2023/09/08 10:18:54;;;;;;;9.02;2.67;;;31.10;82.20;;;;;;4996130;28;20023;-66
2023/09/08 10:21:23;;;;;;;5.38;3.35;;;31.10;82.50;;;;;;4994565;28;20031;-64
2023/09/08 10:24:04;;;;;;;3.95;2.60;;;31.10;82.40;;;;;;4996987;28;20030;-65
2023/09/08 10:26:33;;;;;;;5.47;3.20;;;30.90;81.30;;;;;;4991627;28;20034;-64
2023/09/08 10:28:59;;;;;;;5.10;3.28;;;30.70;80.90;;;;;;4992813;28;20035;-64
2023/09/08 10:31:27;;;;;;;4.47;3.08;;;30.60;81.20;;;;;;4994272;28;20394;-59
2023/09/08 10:33:56;;;;;;;6.32;2.85;;;30.20;82.50;;;;;;4991137;28;20038;-64
2023/09/08 10:36:22;;;;;;;3.97;2.75;;;30.30;82.90;;;;;;4994811;28;20037;-65
2023/09/08 10:38:50;;;;;;;9.20;4.32;;;30.20;83.20;;;;;;4989045;28;20022;-65
2023/09/08 10:41:16;;;;;;;10.05;3.22;;;30.30;84.20;;;;;;4985538;28;20034;-65
2023/09/08 10:43:59;;;;;;;5.22;2.90;;;30.30;83.40;;;;;;4992437;28;20034;-65
2023/09/08 10:46:27;;;;;;;7.35;3.20;;;30.30;82.80;;;;;;4988360;28;20172;-65
2023/09/08 10:48:54;;;;;;;3.95;3.00;;;30.40;84.80;;;;;;4990316;28;20038;-64
2023/09/08 10:51:22;;;;;;;5.25;2.90;;;30.30;81.70;;;;;;4991449;28;20718;-65
2023/09/08 10:53:49;;;;;;;5.30;3.00;;;30.20;83.30;;;;;;4989930;28;20688;-65
2023/09/08 10:56:16;;;;;;;4.57;2.55;;;30.10;83.60;;;;;;4992781;28;20024;-65
2023/09/08 10:58:43;;;;;;;7.50;3.05;;;30.10;84.60;;;;;;4996894;28;20031;-66
2023/09/08 11:01:27;;;;;;;4.15;2.55;;;30.20;85.50;;;;;;4995119;28;20030;-64
2023/09/08 11:03:53;;;;;;;3.83;2.95;;;30.20;85.80;;;;;;5009288;28;20503;-64
2023/09/08 11:06:22;;;;;;;5.40;2.72;;;30.10;83.80;;;;;;4990991;28;20049;-65
2023/09/08 11:08:49;;;;;;;7.18;3.00;;;30.10;84.90;;;;;;4998352;28;20498;-64
2023/09/08 11:11:16;;;;;;;6.07;3.00;;;30.00;86.60;;;;;;4996934;28;20026;-65
2023/09/08 11:13:41;;;;;;;7.30;2.65;;;30.00;85.10;;;;;;4998378;28;20034;-65
2023/09/08 11:16:07;;;;;;;7.43;3.08;;;29.90;84.00;;;;;;4995906;28;20038;-64
2023/09/08 11:18:34;;;;;;;4.47;2.83;;;29.80;83.00;;;;;;4998231;28;20038;-64
2023/09/08 11:21:02;;;;;;;3.83;3.05;;;29.80;83.60;;;;;;4997166;28;20045;-64
2023/09/08 11:23:28;;;;;;;11.40;2.80;;;29.80;83.40;;;;;;4996044;28;20030;-63
2023/09/08 11:25:53;;;;;;;4.70;2.90;;;29.80;83.60;;;;;;4993467;28;20884;-64
2023/09/08 11:28:21;;;;;;;8.43;2.92;;;29.60;82.50;;;;;;4990116;28;20048;-63
2023/09/08 11:30:48;;;;;;;4.72;2.95;;;29.40;83.00;;;;;;4997047;28;20410;-64
2023/09/08 11:33:16;;;;;;;5.32;3.35;;;29.40;84.00;;;;;;4997250;28;20973;-63
2023/09/08 11:35:44;;;;;;;6.25;2.95;;;29.30;82.00;;;;;;4995684;28;20030;-63
2023/09/08 11:38:10;;;;;;;4.15;2.92;;;29.20;82.00;;;;;;4997039;28;20044;-65
2023/09/08 11:40:36;;;;;;;3.95;2.90;;;29.10;82.60;;;;;;4996348;28;20026;-64
2023/09/08 11:43:03;;;;;;;3.53;2.60;;;29.10;83.80;;;;;;4998494;28;20027;-64
2023/09/08 11:45:30;;;;;;;7.15;2.72;;;29.10;83.30;;;;;;4995372;28;20031;-64
2023/09/08 11:47:56;;;;;;;3.90;2.60;;;29.10;83.30;;;;;;4991604;28;20117;-64
2023/09/08 11:50:23;;;;;;;4.80;2.70;;;28.90;83.00;;;;;;4995235;28;20046;-64
2023/09/08 11:52:50;;;;;;;4.82;3.03;;;29.10;84.50;;;;;;4996141;28;20728;-64
2023/09/08 11:55:17;;;;;;;4.63;2.75;;;29.00;84.50;;;;;;4992233;28;20083;-64
2023/09/08 11:57:45;;;;;;;3.38;2.63;;;29.10;84.90;;;;;;4996776;28;20037;-65
2023/09/08 12:00:17;;;;;;;4.80;2.90;;;29.10;84.80;;;;;;4997448;28;20440;-64
2023/09/08 12:02:45;;;;;;;3.97;2.47;;;29.10;84.50;;;;;;4996533;28;20515;-65
2023/09/08 12:05:29;;;;;;;3.95;2.80;;;29.10;86.10;;;;;;4992915;28;21289;-64
2023/09/08 12:07:57;;;;;;;6.65;2.60;;;29.20;84.40;;;;;;4993999;28;20953;-63
2023/09/08 12:10:24;;;;;;;4.13;2.90;;;29.10;82.20;;;;;;5010479;28;20646;-64
2023/09/08 12:12:58;;;;;;;4.53;3.30;;;29.10;82.80;;;;;;4998320;28;20038;-65
2023/09/08 12:15:40;;;;;;;3.20;2.38;;;29.00;85.60;;;;;;4997075;28;20172;-64
2023/09/08 12:18:08;;;;;;;4.33;3.07;;;29.10;85.30;;;;;;4992987;28;20034;-63
2023/09/08 12:20:35;;;;;;;5.05;2.83;;;29.00;82.30;;;;;;4993731;28;20344;-64
2023/09/08 12:23:03;;;;;;;4.13;2.75;;;28.90;83.90;;;;;;4994991;28;20040;-64
2023/09/08 12:25:33;;;;;;;5.35;3.00;;;29.00;84.60;;;;;;4995224;28;20525;-64
2023/09/08 12:27:59;;;;;;;5.45;2.63;;;29.00;84.80;;;;;;4994919;28;20022;-63
2023/09/08 12:30:34;;;;;;;6.75;3.05;;;29.00;85.30;;;;;;4992629;28;20030;-64
2023/09/08 12:33:02;;;;;;;10.65;2.92;;;29.00;85.00;;;;;;4995334;28;20034;-64
2023/09/08 12:35:28;;;;;;;4.22;2.95;;;29.00;84.30;;;;;;4995952;28;20030;-63
2023/09/08 12:37:59;;;;;;;10.40;3.58;;;28.90;84.00;;;;;;4996666;28;20026;-65
2023/09/08 12:40:30;;;;;;;4.38;2.83;;;28.90;84.90;;;;;;4990208;28;20029;-65
2023/09/08 12:42:55;;;;;;;5.15;3.20;;;28.80;85.20;;;;;;4994433;28;20034;-66
2023/09/08 12:45:25;;;;;;;4.50;3.00;;;28.80;87.40;;;;;;4996458;28;20026;-65
2023/09/08 12:47:51;;;;;;;4.43;2.80;;;28.70;86.50;;;;;;4993296;28;20037;-66